sensor_id;sensor_type;location;lat;lon;timestamp;P1;durP1;ratioP1;P2;durP2;ratioP2
43664;SDS011;29263;48.172;11.484;2022-08-01T05:21:55;2.35;;;1.35;;
43664;SDS011;29263;48.172;11.484;2022-08-01T06:09:07;2.80;;;1.65;;
43664;SDS011;29263;48.172;11.484;2022-08-01T06:11:33;1.50;;;1.25;;
43664;SDS011;29263;48.172;11.484;2022-08-01T06:13:59;1.75;;;1.30;;
43664;SDS011;29263;48.172;11.484;2022-08-01T06:16:24;2.03;;;1.40;;
43664;SDS011;29263;48.172;11.484;2022-08-01T06:18:50;1.88;;;1.50;;
43664;SDS011;29263;48.172;11.484;2022-08-01T06:21:16;3.08;;;1.60;;
43664;SDS011;29263;48.172;11.484;2022-08-01T06:23:41;2.20;;;1.33;;
43664;SDS011;29263;48.172;11.484;2022-08-01T06:26:07;2.75;;;1.50;;
43664;SDS011;29263;48.172;11.484;2022-08-01T06:28:33;2.13;;;1.50;;
43664;SDS011;29263;48.172;11.484;2022-08-01T06:30:59;2.17;;;1.30;;
43664;SDS011;29263;48.172;11.484;2022-08-01T06:33:25;2.58;;;1.52;;
43664;SDS011;29263;48.172;11.484;2022-08-01T06:35:51;2.72;;;1.60;;
43664;SDS011;29263;48.172;11.484;2022-08-01T06:38:17;2.00;;;1.52;;
43664;SDS011;29263;48.172;11.484;2022-08-01T06:40:43;1.60;;;1.15;;
43664;SDS011;29263;48.172;11.484;2022-08-01T06:43:09;2.40;;;1.35;;
43664;SDS011;29263;48.172;11.484;2022-08-01T06:45:39;1.83;;;1.52;;
43664;SDS011;29263;48.172;11.484;2022-08-01T06:48:06;1.92;;;1.40;;
43664;SDS011;29263;48.172;11.484;2022-08-01T06:50:35;3.30;;;1.90;;
43664;SDS011;29263;48.172;11.484;2022-08-01T06:53:01;4.82;;;1.77;;
43664;SDS011;29263;48.172;11.484;2022-08-01T06:55:27;3.13;;;1.63;;
43664;SDS011;29263;48.172;11.484;2022-08-01T06:57:53;3.08;;;1.30;;
43664;SDS011;29263;48.172;11.484;2022-08-01T07:00:20;3.30;;;1.50;;
43664;SDS011;29263;48.172;11.484;2022-08-01T07:02:48;1.65;;;1.50;;
43664;SDS011;29263;48.172;11.484;2022-08-01T07:05:22;2.22;;;1.50;;
43664;SDS011;29263;48.172;11.484;2022-08-01T07:07:51;3.42;;;1.77;;
43664;SDS011;29263;48.172;11.484;2022-08-01T07:10:43;1.77;;;1.30;;
43664;SDS011;29263;48.172;11.484;2022-08-01T07:13:49;1.60;;;1.40;;
43664;SDS011;29263;48.172;11.484;2022-08-01T07:16:35;3.08;;;1.75;;
43664;SDS011;29263;48.172;11.484;2022-08-01T07:19:23;2.97;;;1.75;;
43664;SDS011;29263;48.172;11.484;2022-08-01T07:21:54;2.15;;;1.60;;
43664;SDS011;29263;48.172;11.484;2022-08-01T07:27:28;2.97;;;1.38;;
43664;SDS011;29263;48.172;11.484;2022-08-01T07:29:54;3.03;;;1.58;;
43664;SDS011;29263;48.172;11.484;2022-08-01T07:32:19;2.60;;;1.77;;
43664;SDS011;29263;48.172;11.484;2022-08-01T07:34:45;2.10;;;1.60;;
43664;SDS011;29263;48.172;11.484;2022-08-01T07:37:11;3.20;;;1.70;;
43664;SDS011;29263;48.172;11.484;2022-08-01T07:39:36;1.52;;;1.40;;
43664;SDS011;29263;48.172;11.484;2022-08-01T07:42:02;3.58;;;1.70;;
43664;SDS011;29263;48.172;11.484;2022-08-01T07:44:28;2.72;;;1.67;;
43664;SDS011;29263;48.172;11.484;2022-08-01T07:46:53;1.67;;;1.48;;
43664;SDS011;29263;48.172;11.484;2022-08-01T07:49:19;1.88;;;1.50;;
43664;SDS011;29263;48.172;11.484;2022-08-01T07:51:46;3.95;;;1.65;;
43664;SDS011;29263;48.172;11.484;2022-08-01T07:54:12;3.00;;;1.70;;
43664;SDS011;29263;48.172;11.484;2022-08-01T07:56:43;1.85;;;1.75;;
43664;SDS011;29263;48.172;11.484;2022-08-01T07:59:10;2.85;;;1.75;;
43664;SDS011;29263;48.172;11.484;2022-08-01T08:01:38;2.70;;;1.60;;
43664;SDS011;29263;48.172;11.484;2022-08-01T08:04:23;2.03;;;1.50;;
43664;SDS011;29263;48.172;11.484;2022-08-01T08:06:49;3.35;;;1.58;;
43664;SDS011;29263;48.172;11.484;2022-08-01T08:09:18;4.03;;;1.98;;
43664;SDS011;29263;48.172;11.484;2022-08-01T08:11:44;2.47;;;1.60;;
43664;SDS011;29263;48.172;11.484;2022-08-01T08:14:12;1.92;;;1.50;;
43664;SDS011;29263;48.172;11.484;2022-08-01T08:16:39;3.03;;;1.83;;
43664;SDS011;29263;48.172;11.484;2022-08-01T08:19:23;2.15;;;1.52;;
43664;SDS011;29263;48.172;11.484;2022-08-01T08:22:51;2.63;;;1.45;;
43664;SDS011;29263;48.172;11.484;2022-08-01T08:25:17;3.40;;;2.03;;
43664;SDS011;29263;48.172;11.484;2022-08-01T08:27:44;4.22;;;1.70;;
43664;SDS011;29263;48.172;11.484;2022-08-01T08:30:11;2.05;;;1.50;;
43664;SDS011;29263;48.172;11.484;2022-08-01T08:32:37;1.65;;;1.38;;
43664;SDS011;29263;48.172;11.484;2022-08-01T08:35:03;1.40;;;1.30;;
43664;SDS011;29263;48.172;11.484;2022-08-01T08:37:50;1.80;;;1.50;;
43664;SDS011;29263;48.172;11.484;2022-08-01T08:40:16;3.13;;;1.42;;
43664;SDS011;29263;48.172;11.484;2022-08-01T08:45:55;3.00;;;1.80;;
43664;SDS011;29263;48.172;11.484;2022-08-01T08:48:22;3.70;;;1.50;;
43664;SDS011;29263;48.172;11.484;2022-08-01T08:51:09;1.80;;;1.63;;
43664;SDS011;29263;48.172;11.484;2022-08-01T08:53:43;2.08;;;1.65;;
43664;SDS011;29263;48.172;11.484;2022-08-01T08:56:17;2.92;;;1.50;;
43664;SDS011;29263;48.172;11.484;2022-08-01T08:58:44;3.75;;;1.30;;
43664;SDS011;29263;48.172;11.484;2022-08-01T09:01:10;2.50;;;1.88;;
43664;SDS011;29263;48.172;11.484;2022-08-01T09:03:39;2.78;;;1.73;;
43664;SDS011;29263;48.172;11.484;2022-08-01T09:06:06;2.55;;;1.38;;
43664;SDS011;29263;48.172;11.484;2022-08-01T09:08:33;2.97;;;1.30;;
43664;SDS011;29263;48.172;11.484;2022-08-01T09:10:59;3.70;;;1.48;;
43664;SDS011;29263;48.172;11.484;2022-08-01T09:13:24;2.22;;;1.48;;
43664;SDS011;29263;48.172;11.484;2022-08-01T09:15:56;1.42;;;1.30;;
43664;SDS011;29263;48.172;11.484;2022-08-01T09:19:25;1.63;;;1.20;;
43664;SDS011;29263;48.172;11.484;2022-08-01T09:21:59;3.08;;;1.33;;
43664;SDS011;29263;48.172;11.484;2022-08-01T09:26:54;2.75;;;1.63;;
43664;SDS011;29263;48.172;11.484;2022-08-01T09:29:25;3.88;;;1.40;;
43664;SDS011;29263;48.172;11.484;2022-08-01T09:31:52;1.65;;;1.23;;
43664;SDS011;29263;48.172;11.484;2022-08-01T09:34:24;3.38;;;1.20;;
43664;SDS011;29263;48.172;11.484;2022-08-01T09:36:52;2.55;;;1.00;;
43664;SDS011;29263;48.172;11.484;2022-08-01T09:39:24;3.35;;;1.67;;
43664;SDS011;29263;48.172;11.484;2022-08-01T09:42:22;2.50;;;1.20;;
43664;SDS011;29263;48.172;11.484;2022-08-01T09:44:51;1.95;;;1.40;;
43664;SDS011;29263;48.172;11.484;2022-08-01T09:48:05;3.38;;;1.10;;
43664;SDS011;29263;48.172;11.484;2022-08-01T09:50:43;1.30;;;1.05;;
43664;SDS011;29263;48.172;11.484;2022-08-01T09:53:13;1.48;;;1.27;;
43664;SDS011;29263;48.172;11.484;2022-08-01T09:55:40;1.63;;;1.05;;
43664;SDS011;29263;48.172;11.484;2022-08-01T09:58:06;1.85;;;1.05;;
43664;SDS011;29263;48.172;11.484;2022-08-01T10:00:33;2.45;;;0.80;;
43664;SDS011;29263;48.172;11.484;2022-08-01T10:05:49;1.27;;;1.17;;
43664;SDS011;29263;48.172;11.484;2022-08-01T10:08:16;3.45;;;1.05;;
43664;SDS011;29263;48.172;11.484;2022-08-01T10:10:43;2.60;;;1.00;;
43664;SDS011;29263;48.172;11.484;2022-08-01T10:13:31;1.30;;;1.08;;
43664;SDS011;29263;48.172;11.484;2022-08-01T10:15:57;1.27;;;1.00;;
43664;SDS011;29263;48.172;11.484;2022-08-01T10:18:41;1.20;;;0.80;;
43664;SDS011;29263;48.172;11.484;2022-08-01T10:21:09;1.42;;;0.80;;
43664;SDS011;29263;48.172;11.484;2022-08-01T10:30:18;1.00;;;0.90;;
43664;SDS011;29263;48.172;11.484;2022-08-01T10:33:06;2.22;;;1.00;;
43664;SDS011;29263;48.172;11.484;2022-08-01T10:35:32;0.68;;;0.68;;
43664;SDS011;29263;48.172;11.484;2022-08-01T10:38:01;2.28;;;0.85;;
43664;SDS011;29263;48.172;11.484;2022-08-01T10:40:27;1.45;;;0.90;;
43664;SDS011;29263;48.172;11.484;2022-08-01T10:42:54;3.13;;;0.90;;
43664;SDS011;29263;48.172;11.484;2022-08-01T10:45:21;1.95;;;1.00;;
43664;SDS011;29263;48.172;11.484;2022-08-01T10:47:59;1.08;;;0.98;;
43664;SDS011;29263;48.172;11.484;2022-08-01T10:50:57;1.05;;;0.80;;
43664;SDS011;29263;48.172;11.484;2022-08-01T10:53:26;1.33;;;0.80;;
43664;SDS011;29263;48.172;11.484;2022-08-01T10:58:42;2.00;;;1.00;;
43664;SDS011;29263;48.172;11.484;2022-08-01T11:01:31;1.15;;;0.93;;
43664;SDS011;29263;48.172;11.484;2022-08-01T11:16:39;2.10;;;0.90;;
43664;SDS011;29263;48.172;11.484;2022-08-01T11:28:43;3.50;;;1.02;;
43664;SDS011;29263;48.172;11.484;2022-08-01T11:32:23;1.67;;;0.80;;
43664;SDS011;29263;48.172;11.484;2022-08-01T11:34:55;1.67;;;0.77;;
43664;SDS011;29263;48.172;11.484;2022-08-01T11:40:25;1.10;;;0.90;;
43664;SDS011;29263;48.172;11.484;2022-08-01T11:45:54;0.70;;;0.70;;
43664;SDS011;29263;48.172;11.484;2022-08-01T11:48:21;1.15;;;0.70;;
43664;SDS011;29263;48.172;11.484;2022-08-01T11:50:51;1.10;;;0.70;;
43664;SDS011;29263;48.172;11.484;2022-08-01T11:53:18;1.42;;;0.80;;
43664;SDS011;29263;48.172;11.484;2022-08-01T11:58:59;2.58;;;0.85;;
43664;SDS011;29263;48.172;11.484;2022-08-01T12:01:30;0.70;;;0.60;;
43664;SDS011;29263;48.172;11.484;2022-08-01T12:03:56;1.50;;;0.90;;
43664;SDS011;29263;48.172;11.484;2022-08-01T12:06:28;1.15;;;0.90;;
43664;SDS011;29263;48.172;11.484;2022-08-01T12:08:54;1.27;;;0.60;;
43664;SDS011;29263;48.172;11.484;2022-08-01T12:11:19;0.88;;;0.77;;
43664;SDS011;29263;48.172;11.484;2022-08-01T12:13:45;1.48;;;0.68;;
43664;SDS011;29263;48.172;11.484;2022-08-01T12:16:27;2.05;;;0.90;;
43664;SDS011;29263;48.172;11.484;2022-08-01T12:18:53;3.33;;;0.60;;
43664;SDS011;29263;48.172;11.484;2022-08-01T12:21:20;0.77;;;0.60;;
43664;SDS011;29263;48.172;11.484;2022-08-01T12:24:02;0.88;;;0.63;;
43664;SDS011;29263;48.172;11.484;2022-08-01T12:26:40;0.57;;;0.57;;
43664;SDS011;29263;48.172;11.484;2022-08-01T12:29:06;0.85;;;0.57;;
43664;SDS011;29263;48.172;11.484;2022-08-01T12:31:33;1.92;;;0.80;;
43664;SDS011;29263;48.172;11.484;2022-08-01T12:34:24;2.28;;;0.80;;
43664;SDS011;29263;48.172;11.484;2022-08-01T12:36:52;3.75;;;0.80;;
43664;SDS011;29263;48.172;11.484;2022-08-01T12:39:19;3.38;;;1.52;;
43664;SDS011;29263;48.172;11.484;2022-08-01T12:41:45;1.40;;;0.50;;
43664;SDS011;29263;48.172;11.484;2022-08-01T12:44:14;0.80;;;0.52;;
43664;SDS011;29263;48.172;11.484;2022-08-01T12:46:40;0.90;;;0.60;;
43664;SDS011;29263;48.172;11.484;2022-08-01T12:49:07;2.65;;;0.60;;
43664;SDS011;29263;48.172;11.484;2022-08-01T12:51:33;3.88;;;0.95;;
43664;SDS011;29263;48.172;11.484;2022-08-01T12:53:59;1.63;;;0.57;;
43664;SDS011;29263;48.172;11.484;2022-08-01T12:56:31;0.80;;;0.47;;
43664;SDS011;29263;48.172;11.484;2022-08-01T12:58:58;0.70;;;0.60;;
43664;SDS011;29263;48.172;11.484;2022-08-01T13:01:27;2.47;;;0.80;;
43664;SDS011;29263;48.172;11.484;2022-08-01T13:04:00;3.35;;;0.65;;
43664;SDS011;29263;48.172;11.484;2022-08-01T13:06:29;1.13;;;0.70;;
43664;SDS011;29263;48.172;11.484;2022-08-01T13:08:55;2.47;;;0.90;;
43664;SDS011;29263;48.172;11.484;2022-08-01T13:11:30;1.88;;;0.70;;
43664;SDS011;29263;48.172;11.484;2022-08-01T13:13:56;0.80;;;0.55;;
43664;SDS011;29263;48.172;11.484;2022-08-01T13:16:23;0.80;;;0.60;;
43664;SDS011;29263;48.172;11.484;2022-08-01T13:19:12;1.17;;;0.70;;
43664;SDS011;29263;48.172;11.484;2022-08-01T13:21:38;1.17;;;0.70;;
43664;SDS011;29263;48.172;11.484;2022-08-01T13:24:22;0.55;;;0.52;;
43664;SDS011;29263;48.172;11.484;2022-08-01T13:26:49;1.65;;;0.80;;
43664;SDS011;29263;48.172;11.484;2022-08-01T13:29:20;0.98;;;0.70;;
43664;SDS011;29263;48.172;11.484;2022-08-01T13:31:53;1.65;;;0.50;;
43664;SDS011;29263;48.172;11.484;2022-08-01T13:34:18;1.38;;;0.75;;
43664;SDS011;29263;48.172;11.484;2022-08-01T13:36:58;1.15;;;0.70;;
43664;SDS011;29263;48.172;11.484;2022-08-01T13:39:26;1.75;;;0.60;;
43664;SDS011;29263;48.172;11.484;2022-08-01T13:44:31;1.50;;;0.50;;
43664;SDS011;29263;48.172;11.484;2022-08-01T13:46:57;1.10;;;0.50;;
43664;SDS011;29263;48.172;11.484;2022-08-01T13:49:23;0.50;;;0.50;;
43664;SDS011;29263;48.172;11.484;2022-08-01T13:51:54;0.77;;;0.50;;
43664;SDS011;29263;48.172;11.484;2022-08-01T13:54:20;1.80;;;0.57;;
43664;SDS011;29263;48.172;11.484;2022-08-01T13:56:46;0.82;;;0.40;;
43664;SDS011;29263;48.172;11.484;2022-08-01T13:59:11;0.95;;;0.40;;
43664;SDS011;29263;48.172;11.484;2022-08-01T14:01:37;0.60;;;0.30;;
43664;SDS011;29263;48.172;11.484;2022-08-01T14:04:03;0.50;;;0.30;;
43664;SDS011;29263;48.172;11.484;2022-08-01T14:06:31;1.23;;;0.50;;
43664;SDS011;29263;48.172;11.484;2022-08-01T14:08:57;1.08;;;0.47;;
43664;SDS011;29263;48.172;11.484;2022-08-01T14:11:23;2.00;;;0.40;;
43664;SDS011;29263;48.172;11.484;2022-08-01T14:13:49;2.03;;;0.70;;
43664;SDS011;29263;48.172;11.484;2022-08-01T14:16:14;0.60;;;0.50;;
43664;SDS011;29263;48.172;11.484;2022-08-01T14:18:41;1.15;;;0.68;;
43664;SDS011;29263;48.172;11.484;2022-08-01T14:21:08;0.82;;;0.60;;
43664;SDS011;29263;48.172;11.484;2022-08-01T14:23:37;1.80;;;0.60;;
43664;SDS011;29263;48.172;11.484;2022-08-01T14:26:03;1.30;;;0.70;;
43664;SDS011;29263;48.172;11.484;2022-08-01T14:28:29;1.83;;;0.82;;
43664;SDS011;29263;48.172;11.484;2022-08-01T14:30:58;1.13;;;0.70;;
43664;SDS011;29263;48.172;11.484;2022-08-01T14:33:24;1.13;;;0.70;;
43664;SDS011;29263;48.172;11.484;2022-08-01T14:35:51;0.95;;;0.80;;
43664;SDS011;29263;48.172;11.484;2022-08-01T14:38:17;1.00;;;0.65;;
43664;SDS011;29263;48.172;11.484;2022-08-01T14:40:44;1.00;;;0.80;;
43664;SDS011;29263;48.172;11.484;2022-08-01T14:43:12;1.20;;;0.70;;
43664;SDS011;29263;48.172;11.484;2022-08-01T14:45:38;0.65;;;0.60;;
43664;SDS011;29263;48.172;11.484;2022-08-01T14:48:04;1.75;;;0.90;;
43664;SDS011;29263;48.172;11.484;2022-08-01T14:50:30;4.28;;;1.02;;
43664;SDS011;29263;48.172;11.484;2022-08-01T14:52:55;1.65;;;1.10;;
43664;SDS011;29263;48.172;11.484;2022-08-01T14:55:21;2.92;;;0.70;;
43664;SDS011;29263;48.172;11.484;2022-08-01T14:57:50;0.90;;;0.80;;
43664;SDS011;29263;48.172;11.484;2022-08-01T15:00:16;2.17;;;0.77;;
43664;SDS011;29263;48.172;11.484;2022-08-01T15:02:42;1.58;;;0.90;;
43664;SDS011;29263;48.172;11.484;2022-08-01T15:05:08;1.63;;;0.90;;
43664;SDS011;29263;48.172;11.484;2022-08-01T15:07:34;4.70;;;1.10;;
43664;SDS011;29263;48.172;11.484;2022-08-01T15:10:02;0.98;;;0.63;;
43664;SDS011;29263;48.172;11.484;2022-08-01T15:12:32;2.03;;;0.75;;
43664;SDS011;29263;48.172;11.484;2022-08-01T15:14:58;1.63;;;0.80;;
43664;SDS011;29263;48.172;11.484;2022-08-01T15:17:28;2.10;;;0.80;;
43664;SDS011;29263;48.172;11.484;2022-08-01T15:23:20;3.00;;;1.00;;
43664;SDS011;29263;48.172;11.484;2022-08-01T15:25:46;3.67;;;1.13;;
43664;SDS011;29263;48.172;11.484;2022-08-01T15:28:12;2.33;;;1.00;;
43664;SDS011;29263;48.172;11.484;2022-08-01T15:30:38;3.00;;;1.35;;
43664;SDS011;29263;48.172;11.484;2022-08-01T15:33:04;2.75;;;1.45;;
43664;SDS011;29263;48.172;11.484;2022-08-01T15:35:30;2.00;;;1.00;;
43664;SDS011;29263;48.172;11.484;2022-08-01T15:37:55;1.83;;;1.48;;
43664;SDS011;29263;48.172;11.484;2022-08-01T15:40:21;3.95;;;1.10;;
43664;SDS011;29263;48.172;11.484;2022-08-01T15:42:47;5.28;;;1.73;;
43664;SDS011;29263;48.172;11.484;2022-08-01T15:45:12;1.85;;;1.15;;
43664;SDS011;29263;48.172;11.484;2022-08-01T15:47:42;2.65;;;1.00;;
43664;SDS011;29263;48.172;11.484;2022-08-01T15:50:09;2.80;;;1.10;;
43664;SDS011;29263;48.172;11.484;2022-08-01T15:52:34;1.98;;;1.00;;
43664;SDS011;29263;48.172;11.484;2022-08-01T15:55:00;2.05;;;1.15;;
43664;SDS011;29263;48.172;11.484;2022-08-01T15:57:26;1.70;;;1.10;;
43664;SDS011;29263;48.172;11.484;2022-08-01T15:59:52;1.77;;;1.20;;
43664;SDS011;29263;48.172;11.484;2022-08-01T16:02:17;2.58;;;0.90;;
43664;SDS011;29263;48.172;11.484;2022-08-01T16:04:43;2.75;;;1.08;;
43664;SDS011;29263;48.172;11.484;2022-08-01T16:07:09;2.65;;;1.10;;
43664;SDS011;29263;48.172;11.484;2022-08-01T16:09:35;2.25;;;1.13;;
43664;SDS011;29263;48.172;11.484;2022-08-01T16:12:01;1.77;;;0.90;;
43664;SDS011;29263;48.172;11.484;2022-08-01T16:14:27;2.53;;;0.77;;
43664;SDS011;29263;48.172;11.484;2022-08-01T16:16:52;2.40;;;0.90;;
43664;SDS011;29263;48.172;11.484;2022-08-01T16:19:18;1.00;;;0.90;;
43664;SDS011;29263;48.172;11.484;2022-08-01T16:21:44;1.90;;;1.00;;
43664;SDS011;29263;48.172;11.484;2022-08-01T16:24:10;1.02;;;0.63;;
43664;SDS011;29263;48.172;11.484;2022-08-01T16:26:36;1.17;;;0.60;;
43664;SDS011;29263;48.172;11.484;2022-08-01T16:29:01;1.60;;;0.80;;
43664;SDS011;29263;48.172;11.484;2022-08-01T16:31:27;1.73;;;0.68;;
43664;SDS011;29263;48.172;11.484;2022-08-01T16:33:53;1.05;;;0.93;;
43664;SDS011;29263;48.172;11.484;2022-08-01T16:36:19;1.58;;;0.80;;
43664;SDS011;29263;48.172;11.484;2022-08-01T16:38:44;2.08;;;0.77;;
43664;SDS011;29263;48.172;11.484;2022-08-01T16:41:10;0.98;;;0.80;;
43664;SDS011;29263;48.172;11.484;2022-08-01T16:43:36;2.15;;;0.93;;
43664;SDS011;29263;48.172;11.484;2022-08-01T16:46:02;2.35;;;0.82;;
43664;SDS011;29263;48.172;11.484;2022-08-01T16:48:28;1.70;;;1.02;;
43664;SDS011;29263;48.172;11.484;2022-08-01T16:50:54;1.77;;;0.90;;
43664;SDS011;29263;48.172;11.484;2022-08-01T16:53:21;1.95;;;0.77;;
43664;SDS011;29263;48.172;11.484;2022-08-01T16:55:47;2.25;;;0.82;;
43664;SDS011;29263;48.172;11.484;2022-08-01T16:58:15;1.10;;;0.90;;
43664;SDS011;29263;48.172;11.484;2022-08-01T17:00:42;2.90;;;1.23;;
43664;SDS011;29263;48.172;11.484;2022-08-01T17:03:10;1.33;;;0.60;;
43664;SDS011;29263;48.172;11.484;2022-08-01T17:05:37;1.35;;;0.93;;
43664;SDS011;29263;48.172;11.484;2022-08-01T17:08:06;1.40;;;0.75;;
43664;SDS011;29263;48.172;11.484;2022-08-01T17:10:33;1.05;;;0.80;;
43664;SDS011;29263;48.172;11.484;2022-08-01T17:12:59;2.88;;;0.70;;
43664;SDS011;29263;48.172;11.484;2022-08-01T17:15:26;1.77;;;0.80;;
43664;SDS011;29263;48.172;11.484;2022-08-01T17:17:52;4.47;;;0.93;;
43664;SDS011;29263;48.172;11.484;2022-08-01T17:20:21;4.18;;;0.82;;
43664;SDS011;29263;48.172;11.484;2022-08-01T17:22:48;0.95;;;0.85;;
43664;SDS011;29263;48.172;11.484;2022-08-01T17:25:14;2.33;;;0.90;;
43664;SDS011;29263;48.172;11.484;2022-08-01T17:27:40;1.40;;;0.50;;
43664;SDS011;29263;48.172;11.484;2022-08-01T17:30:06;0.90;;;0.68;;
43664;SDS011;29263;48.172;11.484;2022-08-01T17:32:31;1.58;;;0.70;;
43664;SDS011;29263;48.172;11.484;2022-08-01T17:34:59;0.75;;;0.43;;
43664;SDS011;29263;48.172;11.484;2022-08-01T17:37:25;1.17;;;0.60;;
43664;SDS011;29263;48.172;11.484;2022-08-01T17:39:51;1.38;;;0.63;;
43664;SDS011;29263;48.172;11.484;2022-08-01T17:42:17;1.65;;;0.70;;
43664;SDS011;29263;48.172;11.484;2022-08-01T17:44:42;1.83;;;0.60;;
43664;SDS011;29263;48.172;11.484;2022-08-01T17:47:08;2.60;;;0.90;;
43664;SDS011;29263;48.172;11.484;2022-08-01T17:49:34;0.82;;;0.70;;
43664;SDS011;29263;48.172;11.484;2022-08-01T17:51:59;1.15;;;0.60;;
43664;SDS011;29263;48.172;11.484;2022-08-01T17:54:25;2.75;;;0.82;;
43664;SDS011;29263;48.172;11.484;2022-08-01T17:56:51;1.05;;;0.70;;
43664;SDS011;29263;48.172;11.484;2022-08-01T17:59:16;0.63;;;0.50;;
43664;SDS011;29263;48.172;11.484;2022-08-01T18:01:42;1.10;;;0.98;;
43664;SDS011;29263;48.172;11.484;2022-08-01T18:04:08;0.95;;;0.77;;
43664;SDS011;29263;48.172;11.484;2022-08-01T18:06:35;1.70;;;0.52;;
43664;SDS011;29263;48.172;11.484;2022-08-01T18:09:01;1.33;;;0.70;;
43664;SDS011;29263;48.172;11.484;2022-08-01T18:11:27;3.60;;;0.93;;
43664;SDS011;29263;48.172;11.484;2022-08-01T18:13:53;1.08;;;0.80;;
43664;SDS011;29263;48.172;11.484;2022-08-01T18:16:22;1.30;;;0.70;;
43664;SDS011;29263;48.172;11.484;2022-08-01T18:18:48;2.38;;;1.02;;
43664;SDS011;29263;48.172;11.484;2022-08-01T18:21:13;1.10;;;0.75;;
43664;SDS011;29263;48.172;11.484;2022-08-01T18:23:39;1.85;;;1.02;;
43664;SDS011;29263;48.172;11.484;2022-08-01T18:26:05;1.20;;;0.82;;
43664;SDS011;29263;48.172;11.484;2022-08-01T18:28:33;2.92;;;0.70;;
43664;SDS011;29263;48.172;11.484;2022-08-01T18:31:06;1.95;;;0.70;;
43664;SDS011;29263;48.172;11.484;2022-08-01T18:33:33;1.40;;;0.90;;
43664;SDS011;29263;48.172;11.484;2022-08-01T18:35:59;1.45;;;0.80;;
43664;SDS011;29263;48.172;11.484;2022-08-01T18:38:26;1.75;;;1.00;;
43664;SDS011;29263;48.172;11.484;2022-08-01T18:40:53;1.63;;;0.90;;
43664;SDS011;29263;48.172;11.484;2022-08-01T18:43:18;1.40;;;0.90;;
43664;SDS011;29263;48.172;11.484;2022-08-01T18:45:44;1.17;;;0.68;;
43664;SDS011;29263;48.172;11.484;2022-08-01T18:48:10;0.95;;;0.57;;
43664;SDS011;29263;48.172;11.484;2022-08-01T18:50:36;1.95;;;0.90;;
43664;SDS011;29263;48.172;11.484;2022-08-01T18:53:01;2.17;;;0.80;;
43664;SDS011;29263;48.172;11.484;2022-08-01T18:55:27;0.90;;;0.70;;
43664;SDS011;29263;48.172;11.484;2022-08-01T18:57:53;1.25;;;0.95;;
43664;SDS011;29263;48.172;11.484;2022-08-01T19:00:18;1.48;;;0.90;;
43664;SDS011;29263;48.172;11.484;2022-08-01T19:02:44;1.67;;;0.88;;
43664;SDS011;29263;48.172;11.484;2022-08-01T19:05:09;2.42;;;1.00;;
43664;SDS011;29263;48.172;11.484;2022-08-01T19:07:35;2.53;;;1.25;;
43664;SDS011;29263;48.172;11.484;2022-08-01T19:10:01;8.20;;;1.48;;
43664;SDS011;29263;48.172;11.484;2022-08-01T19:12:27;6.53;;;1.30;;
43664;SDS011;29263;48.172;11.484;2022-08-01T19:14:54;1.77;;;1.15;;
43664;SDS011;29263;48.172;11.484;2022-08-01T19:17:20;4.28;;;1.48;;
43664;SDS011;29263;48.172;11.484;2022-08-01T19:19:46;5.57;;;1.42;;
43664;SDS011;29263;48.172;11.484;2022-08-01T19:22:14;1.97;;;1.10;;
43664;SDS011;29263;48.172;11.484;2022-08-01T19:24:40;3.55;;;1.65;;
43664;SDS011;29263;48.172;11.484;2022-08-01T19:27:07;1.65;;;1.20;;
43664;SDS011;29263;48.172;11.484;2022-08-01T19:29:36;3.35;;;1.80;;
43664;SDS011;29263;48.172;11.484;2022-08-01T19:32:04;2.10;;;1.65;;
43664;SDS011;29263;48.172;11.484;2022-08-01T19:37:23;5.03;;;1.80;;
43664;SDS011;29263;48.172;11.484;2022-08-01T19:39:50;3.72;;;1.73;;
43664;SDS011;29263;48.172;11.484;2022-08-01T19:48:59;3.75;;;1.52;;
43664;SDS011;29263;48.172;11.484;2022-08-01T19:51:26;2.78;;;2.00;;
43664;SDS011;29263;48.172;11.484;2022-08-01T21:28:03;5.95;;;1.75;;
43664;SDS011;29263;48.172;11.484;2022-08-01T21:31:39;2.72;;;1.55;;
43664;SDS011;29263;48.172;11.484;2022-08-01T21:35:05;3.05;;;2.00;;
43664;SDS011;29263;48.172;11.484;2022-08-01T21:38:41;3.45;;;1.90;;
43664;SDS011;29263;48.172;11.484;2022-08-01T21:42:28;2.67;;;1.75;;
43664;SDS011;29263;48.172;11.484;2022-08-01T21:45:08;4.60;;;2.33;;
43664;SDS011;29263;48.172;11.484;2022-08-01T21:47:54;3.72;;;1.98;;
43664;SDS011;29263;48.172;11.484;2022-08-01T21:50:36;3.72;;;1.95;;
43664;SDS011;29263;48.172;11.484;2022-08-01T22:00:14;2.85;;;1.48;;
43664;SDS011;29263;48.172;11.484;2022-08-01T22:07:08;3.50;;;1.35;;
43664;SDS011;29263;48.172;11.484;2022-08-01T22:09:52;3.70;;;1.30;;
43664;SDS011;29263;48.172;11.484;2022-08-01T22:12:45;1.88;;;1.52;;
43664;SDS011;29263;48.172;11.484;2022-08-01T22:15:25;1.92;;;1.55;;
43664;SDS011;29263;48.172;11.484;2022-08-01T22:18:10;2.25;;;1.00;;
43664;SDS011;29263;48.172;11.484;2022-08-01T22:21:03;1.52;;;1.10;;
43664;SDS011;29263;48.172;11.484;2022-08-01T22:23:35;2.88;;;1.13;;
43664;SDS011;29263;48.172;11.484;2022-08-01T22:28:30;1.23;;;1.02;;
43664;SDS011;29263;48.172;11.484;2022-08-01T22:31:01;1.65;;;1.10;;
43664;SDS011;29263;48.172;11.484;2022-08-01T22:33:48;3.58;;;1.00;;
43664;SDS011;29263;48.172;11.484;2022-08-01T22:36:14;2.30;;;1.13;;
43664;SDS011;29263;48.172;11.484;2022-08-01T22:38:42;2.50;;;1.30;;
43664;SDS011;29263;48.172;11.484;2022-08-01T22:41:08;1.58;;;0.90;;
43664;SDS011;29263;48.172;11.484;2022-08-01T22:43:58;1.48;;;1.00;;
43664;SDS011;29263;48.172;11.484;2022-08-01T22:46:33;3.00;;;1.15;;
43664;SDS011;29263;48.172;11.484;2022-08-01T22:49:41;4.07;;;1.07;;
43664;SDS011;29263;48.172;11.484;2022-08-01T22:52:23;3.42;;;1.02;;
43664;SDS011;29263;48.172;11.484;2022-08-01T22:55:08;2.30;;;1.20;;
43664;SDS011;29263;48.172;11.484;2022-08-01T22:57:39;1.80;;;1.10;;
43664;SDS011;29263;48.172;11.484;2022-08-01T23:00:11;1.67;;;1.20;;
43664;SDS011;29263;48.172;11.484;2022-08-01T23:02:47;2.15;;;1.08;;
43664;SDS011;29263;48.172;11.484;2022-08-01T23:05:22;1.40;;;1.13;;
43664;SDS011;29263;48.172;11.484;2022-08-01T23:07:53;1.27;;;1.00;;
43664;SDS011;29263;48.172;11.484;2022-08-01T23:10:20;3.42;;;0.85;;
43664;SDS011;29263;48.172;11.484;2022-08-01T23:12:49;1.95;;;1.30;;
43664;SDS011;29263;48.172;11.484;2022-08-01T23:15:15;1.30;;;0.90;;
43664;SDS011;29263;48.172;11.484;2022-08-01T23:17:41;2.13;;;1.10;;
43664;SDS011;29263;48.172;11.484;2022-08-01T23:20:07;1.98;;;1.00;;
43664;SDS011;29263;48.172;11.484;2022-08-01T23:22:35;2.15;;;1.20;;
43664;SDS011;29263;48.172;11.484;2022-08-01T23:25:09;3.55;;;1.02;;
43664;SDS011;29263;48.172;11.484;2022-08-01T23:27:37;2.00;;;1.23;;
43664;SDS011;29263;48.172;11.484;2022-08-01T23:30:04;1.98;;;1.17;;
43664;SDS011;29263;48.172;11.484;2022-08-01T23:32:30;2.05;;;1.17;;
43664;SDS011;29263;48.172;11.484;2022-08-01T23:34:56;1.83;;;1.20;;
43664;SDS011;29263;48.172;11.484;2022-08-01T23:37:21;3.33;;;1.02;;
43664;SDS011;29263;48.172;11.484;2022-08-01T23:39:47;1.33;;;0.98;;
43664;SDS011;29263;48.172;11.484;2022-08-01T23:42:13;1.13;;;0.93;;
43664;SDS011;29263;48.172;11.484;2022-08-01T23:44:39;2.03;;;1.15;;
43664;SDS011;29263;48.172;11.484;2022-08-01T23:47:05;1.42;;;1.02;;
43664;SDS011;29263;48.172;11.484;2022-08-01T23:49:31;1.30;;;0.90;;
43664;SDS011;29263;48.172;11.484;2022-08-01T23:51:57;1.70;;;1.10;;
43664;SDS011;29263;48.172;11.484;2022-08-01T23:54:25;2.10;;;1.15;;